Time;durP1;ratioP1;P1;durP2;ratioP2;P2;SDS_P1;SDS_P2;PMS_P1;PMS_P2;Temp;Humidity;BMP_temperature;BMP_pressure;BME280_temperature;BME280_humidity;BME280_pressure;Samples;Min_cycle;Max_cycle;Signal;HPM_P1;HPM_P2
2023/01/10 00:00:33;;;;;;;50.13;21.58;;;;;;;;;;6217589;28;20077;-62
2023/01/10 00:03:54;;;;;;;54.05;22.55;;;;;;;;;;6213157;28;20046;-62
2023/01/10 00:06:55;;;;;;;50.28;22.60;;;;;;;;;;6211998;28;20093;-62
2023/01/10 00:09:56;;;;;;;57.78;23.73;;;;;;;;;;6200252;28;20137;-62
2023/01/10 00:16:15;;;;;;;58.72;24.13;;;;;;;;;;6198900;28;20044;-62
2023/01/10 00:19:16;;;;;;;56.00;24.35;;;;;;;;;;6208693;28;20484;-62
2023/01/10 00:22:19;;;;;;;57.88;24.10;;;;;;;;;;6203461;28;20052;-62
2023/01/10 00:25:20;;;;;;;57.67;24.45;;;;;;;;;;6201181;28;20081;-62
2023/01/10 00:28:22;;;;;;;60.55;24.27;;;;;;;;;;6201017;28;20038;-61
2023/01/10 00:31:22;;;;;;;53.70;23.42;;;;;;;;;;6207671;28;20041;-62
2023/01/10 00:34:23;;;;;;;52.08;21.55;;;;;;;;;;6202620;28;20053;-62
2023/01/10 00:37:24;;;;;;;50.60;21.30;;;;;;;;;;6200069;28;20046;-61
2023/01/10 00:40:25;;;;;;;55.67;21.92;;;;;;;;;;6207423;28;20141;-62
2023/01/10 00:46:44;;;;;;;53.20;22.33;;;;;;;;;;6199311;28;20383;-63
2023/01/10 00:49:45;;;;;;;53.15;22.52;;;;;;;;;;6205081;28;20488;-62
2023/01/10 00:52:46;;;;;;;52.88;22.80;;;;;;;;;;6203528;28;20140;-62
2023/01/10 00:55:47;;;;;;;44.25;19.02;;;;;;;;;;6203736;28;20052;-62
2023/01/10 00:58:47;;;;;;;45.38;19.77;;;;;;;;;;6202794;28;20072;-62
2023/01/10 01:01:49;;;;;;;45.60;18.50;;;;;;;;;;6199108;28;20485;-62
2023/01/10 01:04:50;;;;;;;40.15;17.73;;;;;;;;;;6205867;28;20595;-61
2023/01/10 01:07:51;;;;;;;41.42;18.45;;;;;;;;;;6204143;28;20056;-62
2023/01/10 01:10:51;;;;;;;41.90;15.50;;;;;;;;;;6201178;28;20050;-62
2023/01/10 01:13:52;;;;;;;38.88;17.27;;;;;;;;;;6200857;28;20545;-62
2023/01/10 01:16:53;;;;;;;36.58;16.15;;;;;;;;;;6203443;28;20041;-62
2023/01/10 01:19:53;;;;;;;38.78;17.70;;;;;;;;;;6204502;28;20042;-63
2023/01/10 01:22:54;;;;;;;40.50;17.67;;;;;;;;;;6199141;28;20279;-62
2023/01/10 01:25:55;;;;;;;43.08;17.85;;;;;;;;;;6203217;28;20410;-61
2023/01/10 01:28:56;;;;;;;37.42;15.70;;;;;;;;;;6198647;28;20208;-61
2023/01/10 01:31:56;;;;;;;42.33;17.58;;;;;;;;;;6197288;28;20054;-61
2023/01/10 01:34:57;;;;;;;47.03;19.02;;;;;;;;;;6201851;28;20046;-62
2023/01/10 01:37:58;;;;;;;42.83;17.63;;;;;;;;;;6201019;28;20073;-62
2023/01/10 01:40:58;;;;;;;40.03;17.95;;;;;;;;;;6198303;28;20533;-62
2023/01/10 01:44:13;;;;;;;40.33;17.42;;;;;;;;;;6200234;28;20046;-62
2023/01/10 01:47:24;;;;;;;53.42;20.45;;;;;;;;;;6196841;28;20048;-62
2023/01/10 01:50:37;;;;;;;56.70;19.60;;;;;;;;;;6197696;28;20058;-62
2023/01/10 01:53:50;;;;;;;53.33;20.42;;;;;;;;;;6201385;28;20046;-62
2023/01/10 01:56:57;;;;;;;42.17;19.00;;;;;;;;;;6180165;28;20444;-61
2023/01/10 02:00:00;;;;;;;45.17;18.48;;;;;;;;;;6198926;28;20530;-62
2023/01/10 02:03:02;;;;;;;41.40;18.80;;;;;;;;;;6199538;28;20497;-62
2023/01/10 02:06:05;;;;;;;48.53;19.25;;;;;;;;;;6199639;28;20046;-62
2023/01/10 02:09:19;;;;;;;46.05;20.38;;;;;;;;;;6204000;28;20048;-62
2023/01/10 02:12:21;;;;;;;45.90;19.85;;;;;;;;;;6198130;28;20046;-62
2023/01/10 02:15:21;;;;;;;41.72;18.50;;;;;;;;;;6199314;28;20112;-62
2023/01/10 02:18:23;;;;;;;43.33;20.13;;;;;;;;;;6199497;28;20076;-62
2023/01/10 02:22:08;;;;;;;39.70;18.00;;;;;;;;;;6201222;28;20046;-62
2023/01/10 02:25:47;;;;;;;38.75;16.58;;;;;;;;;;6200119;28;20869;-62
2023/01/10 02:29:25;;;;;;;42.17;19.38;;;;;;;;;;6197253;28;20550;-62
2023/01/10 02:32:42;;;;;;;36.65;16.70;;;;;;;;;;6199627;28;20076;-62
2023/01/10 02:36:06;;;;;;;40.00;18.42;;;;;;;;;;6199769;28;20136;-62
2023/01/10 02:39:18;;;;;;;33.53;14.80;;;;;;;;;;6196911;28;20091;-61
2023/01/10 02:42:28;;;;;;;40.08;16.25;;;;;;;;;;6198042;28;20472;-62
2023/01/10 02:45:37;;;;;;;39.33;16.02;;;;;;;;;;6198042;28;20045;-62
2023/01/10 02:48:38;;;;;;;35.22;14.85;;;;;;;;;;6199608;28;20504;-61
2023/01/10 02:51:39;;;;;;;34.92;14.88;;;;;;;;;;6197938;28;20080;-62
2023/01/10 02:54:40;;;;;;;29.63;13.60;;;;;;;;;;6197632;28;20061;-62
2023/01/10 02:58:04;;;;;;;30.30;11.90;;;;;;;;;;6196817;28;20133;-62
2023/01/10 03:01:07;;;;;;;30.98;12.77;;;;;;;;;;6194896;28;20737;-62
2023/01/10 03:04:19;;;;;;;30.70;13.05;;;;;;;;;;6197121;28;20049;-61
2023/01/10 03:07:34;;;;;;;27.73;12.27;;;;;;;;;;6199798;28;20046;-61
2023/01/10 03:10:48;;;;;;;20.15;9.40;;;;;;;;;;6204866;28;20557;-61
2023/01/10 03:13:57;;;;;;;22.42;9.02;;;;;;;;;;6200177;28;20073;-62
2023/01/10 03:17:02;;;;;;;27.77;9.68;;;;;;;;;;6198198;28;20424;-62
2023/01/10 03:20:05;;;;;;;28.38;11.65;;;;;;;;;;6200654;28;20046;-62
2023/01/10 03:23:08;;;;;;;32.72;13.52;;;;;;;;;;6196671;28;20129;-62
2023/01/10 03:26:10;;;;;;;30.00;12.32;;;;;;;;;;6196772;28;20129;-63
2023/01/10 03:29:15;;;;;;;26.35;12.35;;;;;;;;;;6197965;28;20045;-63
2023/01/10 03:32:21;;;;;;;25.58;11.05;;;;;;;;;;6197932;28;20274;-62
2023/01/10 03:35:42;;;;;;;24.42;11.07;;;;;;;;;;6200081;28;20054;-63
2023/01/10 03:38:51;;;;;;;25.27;10.43;;;;;;;;;;6204217;28;20053;-62
2023/01/10 03:42:18;;;;;;;20.55;8.55;;;;;;;;;;6202281;28;20060;-63
2023/01/10 03:45:26;;;;;;;21.38;8.70;;;;;;;;;;6208039;28;20084;-62
2023/01/10 03:48:31;;;;;;;23.52;9.80;;;;;;;;;;6202073;28;20495;-62
2023/01/10 03:51:32;;;;;;;22.73;10.57;;;;;;;;;;6205276;28;20170;-62
2023/01/10 03:54:33;;;;;;;33.55;13.40;;;;;;;;;;6201516;28;20046;-63
2023/01/10 03:57:34;;;;;;;29.83;12.48;;;;;;;;;;6202850;28;20053;-62
2023/01/10 04:00:35;;;;;;;31.58;12.63;;;;;;;;;;6208538;28;20091;-62
2023/01/10 04:03:35;;;;;;;30.98;12.07;;;;;;;;;;6204701;28;20060;-62
2023/01/10 04:06:36;;;;;;;28.42;12.50;;;;;;;;;;6200600;28;20046;-63
2023/01/10 04:09:37;;;;;;;34.13;14.00;;;;;;;;;;6207672;28;20133;-62
2023/01/10 04:12:37;;;;;;;30.35;12.07;;;;;;;;;;6208501;28;20554;-62
2023/01/10 04:15:38;;;;;;;27.08;11.40;;;;;;;;;;6201897;28;20054;-62
2023/01/10 04:18:39;;;;;;;29.58;12.35;;;;;;;;;;6197690;28;20054;-62
2023/01/10 04:21:39;;;;;;;30.05;13.13;;;;;;;;;;6201255;28;20039;-62
2023/01/10 04:24:40;;;;;;;31.85;13.30;;;;;;;;;;6196378;28;20477;-62
2023/01/10 04:27:40;;;;;;;33.30;12.90;;;;;;;;;;6196524;28;20054;-62
2023/01/10 04:30:41;;;;;;;35.55;14.32;;;;;;;;;;6198186;28;20173;-62
2023/01/10 04:33:41;;;;;;;33.13;14.30;;;;;;;;;;6195891;28;20501;-62
2023/01/10 04:36:42;;;;;;;33.78;13.98;;;;;;;;;;6196126;28;20170;-62
2023/01/10 04:39:43;;;;;;;35.95;15.02;;;;;;;;;;6196047;28;20054;-62
2023/01/10 04:42:43;;;;;;;30.95;12.77;;;;;;;;;;6196182;28;20062;-62
2023/01/10 04:45:44;;;;;;;32.78;13.27;;;;;;;;;;6196873;28;20107;-63
2023/01/10 04:48:45;;;;;;;36.38;14.82;;;;;;;;;;6197285;28;20081;-62
2023/01/10 04:51:45;;;;;;;36.17;16.95;;;;;;;;;;6195887;28;20448;-62
2023/01/10 04:54:46;;;;;;;50.55;20.08;;;;;;;;;;6195829;28;20137;-62
2023/01/10 04:57:46;;;;;;;35.17;15.13;;;;;;;;;;6195159;28;20039;-63
2023/01/10 05:00:47;;;;;;;38.90;16.38;;;;;;;;;;6195981;28;20065;-63
2023/01/10 05:03:49;;;;;;;39.05;16.20;;;;;;;;;;6195427;28;20508;-62
2023/01/10 05:06:50;;;;;;;;;;;;;;;;;;6195800;28;20043;-63
2023/01/10 05:09:50;;;;;;;38.83;16.48;;;;;;;;;;6198283;28;19925;-63
2023/01/10 05:12:51;;;;;;;43.47;16.75;;;;;;;;;;6195393;28;20051;-62
2023/01/10 05:15:56;;;;;;;38.78;16.35;;;;;;;;;;6196804;28;20484;-63
2023/01/10 05:18:57;;;;;;;39.72;17.25;;;;;;;;;;6195161;28;20050;-63
2023/01/10 05:21:58;;;;;;;37.75;16.95;;;;;;;;;;6199250;28;20495;-62
2023/01/10 05:24:58;;;;;;;48.97;19.20;;;;;;;;;;6198326;28;20046;-62
2023/01/10 05:27:59;;;;;;;48.85;19.23;;;;;;;;;;6194651;28;20061;-62
2023/01/10 05:31:00;;;;;;;52.10;20.23;;;;;;;;;;6195234;28;20046;-64
2023/01/10 05:34:01;;;;;;;44.38;19.80;;;;;;;;;;6195398;28;20053;-62
2023/01/10 05:37:02;;;;;;;46.38;19.38;;;;;;;;;;6201311;28;20042;-62
2023/01/10 05:40:02;;;;;;;44.00;19.73;;;;;;;;;;6195722;28;20412;-62
2023/01/10 05:43:03;;;;;;;44.10;20.02;;;;;;;;;;6192003;28;20046;-63
2023/01/10 05:46:04;;;;;;;43.72;19.33;;;;;;;;;;6194048;28;20049;-63
2023/01/10 05:49:04;;;;;;;47.97;19.25;;;;;;;;;;6194373;28;20065;-61
2023/01/10 05:52:05;;;;;;;45.05;20.02;;;;;;;;;;6194139;28;20081;-62
2023/01/10 05:55:06;;;;;;;46.60;19.83;;;;;;;;;;6192282;28;20146;-62
2023/01/10 05:58:09;;;;;;;43.28;19.02;;;;;;;;;;6191660;28;20064;-62
2023/01/10 06:01:10;;;;;;;45.80;21.02;;;;;;;;;;6192507;28;20683;-62
2023/01/10 06:04:11;;;;;;;48.65;20.30;;;;;;;;;;6192712;28;20042;-63
2023/01/10 06:07:11;;;;;;;53.17;20.23;;;;;;;;;;6196140;28;20121;-62
2023/01/10 06:10:12;;;;;;;51.25;21.15;;;;;;;;;;6194362;28;20073;-62
2023/01/10 06:13:13;;;;;;;50.63;21.58;;;;;;;;;;6207587;28;20087;-62
2023/01/10 06:16:13;;;;;;;55.53;22.20;;;;;;;;;;6214013;28;20512;-62
2023/01/10 06:19:14;;;;;;;53.35;21.35;;;;;;;;;;6214607;28;20096;-62
2023/01/10 06:22:14;;;;;;;48.63;20.67;;;;;;;;;;6213589;28;20046;-62
2023/01/10 06:25:15;;;;;;;48.03;19.58;;;;;;;;;;6214169;28;20073;-62
2023/01/10 06:28:17;;;;;;;50.85;20.48;;;;;;;;;;6216437;28;20049;-61
2023/01/10 06:31:18;;;;;;;52.85;18.65;;;;;;;;;;6217441;28;20088;-63
2023/01/10 06:34:18;;;;;;;50.33;20.63;;;;;;;;;;6216864;28;20124;-61
2023/01/10 06:37:19;;;;;;;48.83;19.88;;;;;;;;;;6216597;28;20046;-62
2023/01/10 06:40:19;;;;;;;50.65;20.20;;;;;;;;;;6217130;28;20396;-62
2023/01/10 06:43:20;;;;;;;49.17;20.33;;;;;;;;;;6217237;28;20042;-61
2023/01/10 06:46:21;;;;;;;50.05;21.13;;;;;;;;;;6204811;28;20053;-62
2023/01/10 06:49:21;;;;;;;50.83;21.02;;;;;;;;;;6204185;28;20049;-63
2023/01/10 06:52:22;;;;;;;50.90;20.05;;;;;;;;;;6198790;28;20492;-62
2023/01/10 06:55:23;;;;;;;47.45;19.35;;;;;;;;;;6200291;28;20078;-62
2023/01/10 06:58:24;;;;;;;46.40;19.83;;;;;;;;;;6201006;28;20470;-62
2023/01/10 07:01:25;;;;;;;43.80;17.48;;;;;;;;;;6210871;28;20188;-61
2023/01/10 07:04:26;;;;;;;47.33;19.15;;;;;;;;;;6214355;28;20412;-62
2023/01/10 07:07:26;;;;;;;44.50;18.92;;;;;;;;;;6215977;28;20058;-62
2023/01/10 07:10:27;;;;;;;49.47;19.25;;;;;;;;;;6215699;28;20042;-62
2023/01/10 07:13:28;;;;;;;46.88;17.80;;;;;;;;;;6215858;28;20046;-62
2023/01/10 07:16:28;;;;;;;36.97;16.63;;;;;;;;;;6215733;28;20447;-62
2023/01/10 07:19:29;;;;;;;42.65;16.80;;;;;;;;;;6207418;28;20074;-62
2023/01/10 07:22:30;;;;;;;35.22;14.93;;;;;;;;;;6197693;28;20042;-62
2023/01/10 07:25:30;;;;;;;31.15;14.27;;;;;;;;;;6206504;28;20065;-62
2023/01/10 07:28:33;;;;;;;38.67;13.98;;;;;;;;;;6196548;28;20042;-62
2023/01/10 07:31:33;;;;;;;35.47;14.50;;;;;;;;;;6197593;28;20054;-62
2023/01/10 07:34:34;;;;;;;32.42;13.98;;;;;;;;;;6198799;28;20472;-62
2023/01/10 07:37:34;;;;;;;33.30;14.00;;;;;;;;;;6196477;28;20063;-62
2023/01/10 07:40:35;;;;;;;38.65;15.40;;;;;;;;;;6214348;28;20046;-62
2023/01/10 07:43:36;;;;;;;34.35;13.63;;;;;;;;;;6205755;28;20058;-61
2023/01/10 07:46:36;;;;;;;31.60;13.38;;;;;;;;;;6202906;28;20061;-62
2023/01/10 07:49:37;;;;;;;34.55;14.13;;;;;;;;;;6202848;28;20584;-62
2023/01/10 07:52:37;;;;;;;33.03;13.55;;;;;;;;;;6207096;28;20068;-62
2023/01/10 07:55:39;;;;;;;31.15;13.70;;;;;;;;;;6210531;28;20049;-62
2023/01/10 07:58:39;;;;;;;29.30;11.80;;;;;;;;;;6206503;28;20061;-61
2023/01/10 08:01:40;;;;;;;27.40;11.15;;;;;;;;;;6207926;28;20065;-62
2023/01/10 08:04:40;;;;;;;28.77;11.85;;;;;;;;;;6205787;28;20056;-62
2023/01/10 08:07:41;;;;;;;30.55;12.55;;;;;;;;;;6202281;28;20050;-62
2023/01/10 08:10:42;;;;;;;23.20;10.18;;;;;;;;;;6210512;28;20058;-62
2023/01/10 08:13:42;;;;;;;24.50;10.45;;;;;;;;;;6207685;28;20125;-62
2023/01/10 08:16:43;;;;;;;22.40;11.15;;;;;;;;;;6202144;28;20038;-61
2023/01/10 08:19:44;;;;;;;27.45;11.07;;;;;;;;;;6197667;28;20493;-61
2023/01/10 08:22:44;;;;;;;25.63;11.70;;;;;;;;;;6197516;28;20050;-62
2023/01/10 08:25:45;;;;;;;30.85;12.93;;;;;;;;;;6201347;28;20168;-62
2023/01/10 08:28:46;;;;;;;25.40;11.77;;;;;;;;;;6201699;28;20532;-63
2023/01/10 08:31:46;;;;;;;27.60;11.10;;;;;;;;;;6198352;28;20077;-61
2023/01/10 08:34:47;;;;;;;26.65;10.93;;;;;;;;;;6212563;28;20049;-61
2023/01/10 08:37:47;;;;;;;25.98;10.93;;;;;;;;;;6208151;28;20653;-62
2023/01/10 08:40:49;;;;;;;25.60;9.60;;;;;;;;;;6201967;28;20066;-63
2023/01/10 08:43:51;;;;;;;27.42;11.48;;;;;;;;;;6212993;28;20287;-62
2023/01/10 08:46:52;;;;;;;23.27;11.25;;;;;;;;;;6207560;28;20045;-63
2023/01/10 08:49:52;;;;;;;28.38;10.15;;;;;;;;;;6216265;28;20049;-63
2023/01/10 08:52:53;;;;;;;26.40;10.25;;;;;;;;;;6212376;28;20397;-62
2023/01/10 08:55:53;;;;;;;24.48;10.63;;;;;;;;;;6202707;28;20054;-62
2023/01/10 08:58:54;;;;;;;24.77;10.23;;;;;;;;;;6202229;28;20267;-63
2023/01/10 09:01:57;;;;;;;20.92;8.82;;;;;;;;;;6200166;28;20047;-62
2023/01/10 09:04:57;;;;;;;22.92;9.07;;;;;;;;;;6200679;28;20050;-62
2023/01/10 09:07:59;;;;;;;25.33;9.52;;;;;;;;;;6200907;28;20432;-63
2023/01/10 09:11:00;;;;;;;24.95;10.10;;;;;;;;;;6199197;28;20382;-62
2023/01/10 09:14:01;;;;;;;22.75;9.32;;;;;;;;;;6208645;28;20050;-63
2023/01/10 09:17:01;;;;;;;23.95;9.95;;;;;;;;;;6205868;28;20108;-63
2023/01/10 09:20:05;;;;;;;28.77;10.82;;;;;;;;;;6208471;28;20611;-62
2023/01/10 09:23:11;;;;;;;24.48;11.18;;;;;;;;;;6216103;28;20049;-63
2023/01/10 09:26:11;;;;;;;26.27;10.63;;;;;;;;;;6214585;28;20046;-62
2023/01/10 09:29:12;;;;;;;27.95;11.50;;;;;;;;;;6205418;28;20447;-63
2023/01/10 09:32:12;;;;;;;27.13;12.75;;;;;;;;;;6198292;28;20045;-62
2023/01/10 09:35:13;;;;;;;33.80;14.23;;;;;;;;;;6199548;28;20042;-63
2023/01/10 09:38:17;;;;;;;38.42;14.88;;;;;;;;;;6197636;28;20050;-63
2023/01/10 09:41:29;;;;;;;39.30;15.93;;;;;;;;;;6200733;28;20567;-61
2023/01/10 09:44:44;;;;;;;47.33;18.70;;;;;;;;;;6200645;28;20042;-62
2023/01/10 09:47:53;;;;;;;49.25;20.08;;;;;;;;;;6201545;28;20054;-62
2023/01/10 09:51:08;;;;;;;56.45;21.33;;;;;;;;;;6207304;28;20058;-62
2023/01/10 09:54:35;;;;;;;51.65;20.38;;;;;;;;;;6213964;28;20046;-62
2023/01/10 09:57:36;;;;;;;54.35;21.15;;;;;;;;;;6218925;28;20050;-62
2023/01/10 10:00:56;;;;;;;52.17;20.58;;;;;;;;;;6218217;28;20723;-61
2023/01/10 10:04:26;;;;;;;58.00;21.58;;;;;;;;;;6217834;28;20487;-62
2023/01/10 10:07:26;;;;;;;65.13;23.00;;;;;;;;;;6218277;28;20054;-62
2023/01/10 10:10:54;;;;;;;64.15;22.90;;;;;;;;;;6214604;28;20053;-63
2023/01/10 10:14:19;;;;;;;60.25;21.33;;;;;;;;;;6199142;28;20046;-63
2023/01/10 10:17:31;;;;;;;59.20;20.98;;;;;;;;;;6200328;28;20069;-63
2023/01/10 10:20:49;;;;;;;53.00;19.73;;;;;;;;;;6200931;28;20165;-62
2023/01/10 10:24:10;;;;;;;47.30;19.92;;;;;;;;;;6198649;28;20172;-63
2023/01/10 10:27:25;;;;;;;48.97;19.40;;;;;;;;;;6196606;28;20381;-63
2023/01/10 10:30:57;;;;;;;50.22;19.75;;;;;;;;;;6199041;28;20063;-61
2023/01/10 10:34:12;;;;;;;51.88;19.92;;;;;;;;;;6212138;28;20049;-62
2023/01/10 10:37:31;;;;;;;47.50;20.50;;;;;;;;;;6203441;28;20421;-62
2023/01/10 10:40:35;;;;;;;52.53;21.30;;;;;;;;;;6200981;28;20038;-63
2023/01/10 10:43:37;;;;;;;47.83;18.67;;;;;;;;;;6198828;28;20046;-63
2023/01/10 10:46:38;;;;;;;36.22;15.15;;;;;;;;;;6196962;28;20145;-62
2023/01/10 10:49:48;;;;;;;44.47;18.35;;;;;;;;;;6178094;28;20173;-63
2023/01/10 10:52:49;;;;;;;51.08;20.35;;;;;;;;;;6203632;28;20057;-62
2023/01/10 10:55:50;;;;;;;52.47;21.48;;;;;;;;;;6210335;28;20153;-62
2023/01/10 10:58:54;;;;;;;40.38;17.88;;;;;;;;;;6198968;28;20491;-62
2023/01/10 11:01:55;;;;;;;44.33;16.95;;;;;;;;;;6198789;28;20054;-63
2023/01/10 11:05:01;;;;;;;40.33;16.67;;;;;;;;;;6198341;28;20085;-63
2023/01/10 11:08:11;;;;;;;47.40;18.33;;;;;;;;;;6200186;28;20074;-62
2023/01/10 11:11:19;;;;;;;41.47;16.25;;;;;;;;;;6199105;28;20413;-62
2023/01/10 11:14:44;;;;;;;39.97;15.95;;;;;;;;;;6214817;28;20112;-63
2023/01/10 11:18:05;;;;;;;41.03;15.88;;;;;;;;;;6201754;28;20507;-63
2023/01/10 11:21:14;;;;;;;42.65;16.10;;;;;;;;;;6197388;28;20049;-63
2023/01/10 11:24:31;;;;;;;40.35;17.08;;;;;;;;;;6195931;28;20116;-61
2023/01/10 11:27:44;;;;;;;43.78;17.95;;;;;;;;;;6198692;28;20125;-62
2023/01/10 11:30:47;;;;;;;43.03;17.08;;;;;;;;;;6196602;28;20046;-62
2023/01/10 11:33:48;;;;;;;41.53;17.77;;;;;;;;;;6199042;28;20049;-62
2023/01/10 11:36:53;;;;;;;48.55;19.77;;;;;;;;;;6206351;28;20049;-62
2023/01/10 11:40:18;;;;;;;47.83;19.25;;;;;;;;;;6206497;28;20522;-62
2023/01/10 11:43:29;;;;;;;47.60;20.35;;;;;;;;;;6216343;28;20084;-60
2023/01/10 11:46:30;;;;;;;43.10;18.63;;;;;;;;;;6197181;28;20042;-63
2023/01/10 11:49:38;;;;;;;47.38;19.35;;;;;;;;;;6197520;28;20065;-63
2023/01/10 11:52:43;;;;;;;47.25;18.67;;;;;;;;;;6198757;28;20107;-63
2023/01/10 11:55:46;;;;;;;46.28;18.27;;;;;;;;;;6199483;28;20209;-63
2023/01/10 11:58:47;;;;;;;48.10;18.90;;;;;;;;;;6210327;28;20074;-62
2023/01/10 12:01:54;;;;;;;46.13;18.63;;;;;;;;;;6206063;28;20474;-63
2023/01/10 12:04:59;;;;;;;44.58;18.60;;;;;;;;;;6220989;28;20053;-63
2023/01/10 12:08:05;;;;;;;44.80;17.75;;;;;;;;;;6203710;28;20058;-63
2023/01/10 12:11:23;;;;;;;48.38;19.30;;;;;;;;;;6202344;28;20069;-63
2023/01/10 12:14:26;;;;;;;47.13;18.90;;;;;;;;;;6203221;28;20049;-64
2023/01/10 12:17:29;;;;;;;42.63;18.80;;;;;;;;;;6201631;28;20037;-63
2023/01/10 12:20:33;;;;;;;47.63;19.23;;;;;;;;;;6200703;28;20050;-63
2023/01/10 12:23:40;;;;;;;53.13;20.60;;;;;;;;;;6203712;28;20060;-63
2023/01/10 12:26:41;;;;;;;48.72;19.10;;;;;;;;;;6203492;28;20074;-63
2023/01/10 12:29:46;;;;;;;53.07;19.50;;;;;;;;;;6199311;28;20049;-63
2023/01/10 12:32:51;;;;;;;45.60;18.67;;;;;;;;;;6201686;28;20141;-62
2023/01/10 12:36:08;;;;;;;49.53;19.58;;;;;;;;;;6200037;28;20050;-63
2023/01/10 12:39:18;;;;;;;46.42;19.45;;;;;;;;;;6203920;28;20153;-63
2023/01/10 12:45:58;;;;;;;45.67;18.92;;;;;;;;;;6201785;28;20057;-63
2023/01/10 12:49:14;;;;;;;47.38;18.25;;;;;;;;;;6198349;28;20056;-63
2023/01/10 12:52:46;;;;;;;45.55;18.95;;;;;;;;;;6207271;28;20057;-62
2023/01/10 12:55:47;;;;;;;41.65;18.10;;;;;;;;;;6174430;28;20042;-62
2023/01/10 12:58:53;;;;;;;36.53;16.27;;;;;;;;;;6206869;28;20085;-62
2023/01/10 13:02:00;;;;;;;39.00;15.65;;;;;;;;;;6217143;28;20054;-63
2023/01/10 13:05:03;;;;;;;39.08;16.17;;;;;;;;;;6211388;28;20053;-63
2023/01/10 13:08:10;;;;;;;41.58;16.45;;;;;;;;;;6200125;28;20053;-63
2023/01/10 13:11:14;;;;;;;42.63;16.70;;;;;;;;;;6199779;28;20064;-64
2023/01/10 13:14:19;;;;;;;38.60;16.50;;;;;;;;;;6201548;28;20046;-63
2023/01/10 13:17:32;;;;;;;41.20;17.77;;;;;;;;;;6213135;28;20042;-64
2023/01/10 13:20:39;;;;;;;39.88;18.13;;;;;;;;;;6213293;28;20042;-63
2023/01/10 13:23:51;;;;;;;41.88;18.08;;;;;;;;;;6219343;28;20062;-63
2023/01/10 13:26:53;;;;;;;45.35;18.77;;;;;;;;;;6200755;28;20058;-63
2023/01/10 13:29:54;;;;;;;43.17;18.58;;;;;;;;;;6202667;28;20057;-63
2023/01/10 13:33:24;;;;;;;46.92;19.23;;;;;;;;;;6200360;28;20576;-63
2023/01/10 13:36:35;;;;;;;47.53;19.85;;;;;;;;;;6199789;28;20471;-63
2023/01/10 13:39:38;;;;;;;45.63;18.85;;;;;;;;;;6200410;28;20497;-62
2023/01/10 13:46:14;;;;;;;42.05;17.90;;;;;;;;;;6211782;28;20114;-63
2023/01/10 13:49:25;;;;;;;36.58;16.80;;;;;;;;;;6213088;28;20056;-63
2023/01/10 13:52:31;;;;;;;31.00;13.98;;;;;;;;;;6200780;28;20444;-62
2023/01/10 13:55:37;;;;;;;30.77;14.48;;;;;;;;;;6201361;28;20438;-62
2023/01/10 14:05:20;;;;;;;39.47;15.60;;;;;;;;;;6198967;28;20058;-62
2023/01/10 14:08:21;;;;;;;39.53;16.45;;;;;;;;;;6197308;28;20046;-63
2023/01/10 14:11:26;;;;;;;37.03;16.60;;;;;;;;;;6199609;28;20053;-63
2023/01/10 14:14:28;;;;;;;42.72;17.10;;;;;;;;;;6200463;28;20050;-62
2023/01/10 14:17:34;;;;;;;42.25;18.48;;;;;;;;;;6198757;28;20103;-61
2023/01/10 14:20:35;;;;;;;40.63;17.65;;;;;;;;;;6197601;28;20493;-62
2023/01/10 14:23:42;;;;;;;41.08;17.80;;;;;;;;;;6196159;28;20151;-62
2023/01/10 14:26:44;;;;;;;45.08;18.05;;;;;;;;;;6199447;28;20069;-62
2023/01/10 14:29:57;;;;;;;39.38;17.15;;;;;;;;;;6193903;28;20064;-63
2023/01/10 14:33:11;;;;;;;37.60;16.95;;;;;;;;;;6195114;28;20298;-63
2023/01/10 14:36:26;;;;;;;37.67;16.15;;;;;;;;;;6206920;28;20575;-62
2023/01/10 14:39:28;;;;;;;38.30;17.10;;;;;;;;;;6194779;28;20416;-60
2023/01/10 14:42:29;;;;;;;;;;;;;;;;;;6199227;28;20813;-63
2023/01/10 14:45:38;;;;;;;35.13;15.57;;;;;;;;;;6198464;28;19925;-62
2023/01/10 14:48:45;;;;;;;46.60;17.58;;;;;;;;;;6196170;28;20046;-59
2023/01/10 14:51:49;;;;;;;43.30;16.95;;;;;;;;;;6195073;28;20104;-62
2023/01/10 14:55:08;;;;;;;37.75;16.80;;;;;;;;;;6198557;28;20542;-60
2023/01/10 14:58:16;;;;;;;44.70;16.00;;;;;;;;;;6196293;28;20057;-60
2023/01/10 15:01:23;;;;;;;39.05;15.65;;;;;;;;;;6197996;28;20629;-60
2023/01/10 15:04:31;;;;;;;41.65;16.73;;;;;;;;;;6195547;28;20601;-60
2023/01/10 15:07:32;;;;;;;45.80;18.63;;;;;;;;;;6193207;28;20058;-60
2023/01/10 15:10:41;;;;;;;45.60;18.15;;;;;;;;;;6197511;28;20049;-60
2023/01/10 15:13:48;;;;;;;45.40;17.63;;;;;;;;;;6196442;28;20440;-61
2023/01/10 15:16:52;;;;;;;50.03;19.50;;;;;;;;;;6195510;28;20139;-60
2023/01/10 15:19:54;;;;;;;48.63;19.08;;;;;;;;;;6193654;28;20050;-60
2023/01/10 15:22:59;;;;;;;48.50;19.52;;;;;;;;;;6196026;28;20050;-59
2023/01/10 15:26:03;;;;;;;48.65;19.60;;;;;;;;;;6193743;28;20101;-59
2023/01/10 15:29:13;;;;;;;55.80;21.85;;;;;;;;;;6199509;28;20053;-62
2023/01/10 15:32:28;;;;;;;46.08;19.13;;;;;;;;;;6210705;28;20042;-62
2023/01/10 15:35:30;;;;;;;47.13;19.88;;;;;;;;;;6210179;28;20052;-61
2023/01/10 15:38:34;;;;;;;45.30;18.77;;;;;;;;;;6208427;28;20054;-62
2023/01/10 15:41:36;;;;;;;46.55;19.70;;;;;;;;;;6211792;28;20081;-61
2023/01/10 15:44:44;;;;;;;48.15;18.65;;;;;;;;;;6209232;28;20053;-61
2023/01/10 15:47:47;;;;;;;47.17;20.45;;;;;;;;;;6211167;28;20094;-61
2023/01/10 15:51:02;;;;;;;51.30;20.67;;;;;;;;;;6211130;28;20619;-61
2023/01/10 15:54:17;;;;;;;49.42;21.52;;;;;;;;;;6211623;28;20467;-61
2023/01/10 15:57:31;;;;;;;46.83;20.20;;;;;;;;;;6205364;28;20053;-60
2023/01/10 16:00:32;;;;;;;54.20;19.48;;;;;;;;;;6210576;28;20049;-62
2023/01/10 16:03:38;;;;;;;54.95;21.30;;;;;;;;;;6209870;28;20053;-61
2023/01/10 16:06:39;;;;;;;54.25;21.95;;;;;;;;;;6211788;28;20116;-61
2023/01/10 16:09:40;;;;;;;50.20;20.48;;;;;;;;;;6207924;28;20049;-61
2023/01/10 16:16:03;;;;;;;45.08;18.27;;;;;;;;;;6210478;28;20178;-61
2023/01/10 16:19:04;;;;;;;51.72;19.63;;;;;;;;;;6207768;28;20458;-61
2023/01/10 16:22:05;;;;;;;59.20;21.65;;;;;;;;;;6210209;28;20057;-61
2023/01/10 16:25:12;;;;;;;47.35;20.40;;;;;;;;;;6210757;28;20127;-61
2023/01/10 16:28:15;;;;;;;51.53;20.02;;;;;;;;;;6209117;28;20514;-61
2023/01/10 16:31:15;;;;;;;45.30;17.77;;;;;;;;;;6210451;28;20053;-61
2023/01/10 16:34:16;;;;;;;47.30;19.25;;;;;;;;;;6208610;28;20512;-62
2023/01/10 16:37:17;;;;;;;47.67;19.15;;;;;;;;;;6198515;28;20054;-62
2023/01/10 16:40:23;;;;;;;39.72;16.33;;;;;;;;;;6199631;28;20058;-61
2023/01/10 16:43:25;;;;;;;48.60;17.77;;;;;;;;;;6198274;28;20077;-61
2023/01/10 16:46:27;;;;;;;47.55;18.58;;;;;;;;;;6200245;28;20053;-62
2023/01/10 16:49:28;;;;;;;48.43;18.20;;;;;;;;;;6198699;28;20046;-60
2023/01/10 16:52:29;;;;;;;50.30;19.30;;;;;;;;;;6197461;28;20930;-60
2023/01/10 16:55:43;;;;;;;49.33;19.08;;;;;;;;;;6197757;28;20057;-61
2023/01/10 16:58:45;;;;;;;46.63;18.05;;;;;;;;;;6195692;28;20076;-60
2023/01/10 17:01:50;;;;;;;54.03;20.88;;;;;;;;;;6198266;28;20068;-59
2023/01/10 17:04:51;;;;;;;59.28;22.80;;;;;;;;;;6200199;28;20052;-60
2023/01/10 17:07:52;;;;;;;61.38;22.40;;;;;;;;;;6197976;28;20050;-62
2023/01/10 17:11:03;;;;;;;60.45;21.52;;;;;;;;;;6199485;28;20140;-62
2023/01/10 17:14:04;;;;;;;61.42;22.33;;;;;;;;;;6200001;28;20053;-62
2023/01/10 17:17:05;;;;;;;64.05;23.98;;;;;;;;;;6198885;28;20058;-62
2023/01/10 17:20:06;;;;;;;52.33;19.40;;;;;;;;;;6201464;28;20750;-62
2023/01/10 17:23:11;;;;;;;56.65;20.60;;;;;;;;;;6201163;28;20056;-60
2023/01/10 17:26:14;;;;;;;50.55;19.60;;;;;;;;;;6207555;28;20050;-62
2023/01/10 17:29:15;;;;;;;55.97;21.38;;;;;;;;;;6207173;28;20448;-62
2023/01/10 17:32:15;;;;;;;52.10;18.92;;;;;;;;;;6207013;28;20038;-62
2023/01/10 17:35:17;;;;;;;52.53;19.55;;;;;;;;;;6200916;28;20465;-62
2023/01/10 17:38:17;;;;;;;53.00;20.85;;;;;;;;;;6196853;28;20050;-60
2023/01/10 17:41:19;;;;;;;51.97;19.70;;;;;;;;;;6198513;28;20053;-60
2023/01/10 17:44:19;;;;;;;49.08;20.80;;;;;;;;;;6197779;28;20046;-62
2023/01/10 17:47:20;;;;;;;50.35;21.15;;;;;;;;;;6200472;28;21348;-62
2023/01/10 17:50:20;;;;;;;46.25;19.15;;;;;;;;;;6198085;28;20062;-61
2023/01/10 17:53:21;;;;;;;45.65;19.48;;;;;;;;;;6197448;28;20060;-62
2023/01/10 17:56:23;;;;;;;51.75;19.67;;;;;;;;;;6195528;28;20084;-61
2023/01/10 17:59:24;;;;;;;52.22;21.33;;;;;;;;;;6196771;28;20045;-61
2023/01/10 18:02:24;;;;;;;57.28;22.55;;;;;;;;;;6197409;28;20464;-62
2023/01/10 18:05:25;;;;;;;54.65;23.00;;;;;;;;;;6196589;28;20070;-62
2023/01/10 18:08:25;;;;;;;58.50;22.13;;;;;;;;;;6196554;28;20261;-62
2023/01/10 18:11:27;;;;;;;60.58;23.60;;;;;;;;;;6181201;28;20061;-62
2023/01/10 18:14:37;;;;;;;62.13;24.88;;;;;;;;;;6207078;28;20779;-62
2023/01/10 18:17:37;;;;;;;65.13;26.92;;;;;;;;;;6205566;28;20228;-62
2023/01/10 18:20:42;;;;;;;57.17;23.90;;;;;;;;;;6207958;28;20532;-62